sensor_id;sensor_type;location;lat;lon;timestamp;P1;durP1;ratioP1;P2;durP2;ratioP2
32521;SDS011;18963;51.504;5.316;2024-02-26T00:00:31;5.68;;;2.65;;
32521;SDS011;18963;51.504;5.316;2024-02-26T00:02:57;6.57;;;2.65;;
32521;SDS011;18963;51.504;5.316;2024-02-26T00:05:22;6.00;;;3.00;;
32521;SDS011;18963;51.504;5.316;2024-02-26T00:07:48;6.60;;;3.13;;
32521;SDS011;18963;51.504;5.316;2024-02-26T00:10:14;8.57;;;2.72;;
32521;SDS011;18963;51.504;5.316;2024-02-26T00:12:40;6.53;;;2.67;;
32521;SDS011;18963;51.504;5.316;2024-02-26T00:15:06;8.10;;;2.90;;
32521;SDS011;18963;51.504;5.316;2024-02-26T00:17:32;6.97;;;3.13;;
32521;SDS011;18963;51.504;5.316;2024-02-26T00:19:58;11.55;;;3.25;;
32521;SDS011;18963;51.504;5.316;2024-02-26T00:22:23;7.63;;;3.05;;
32521;SDS011;18963;51.504;5.316;2024-02-26T00:24:49;6.30;;;3.03;;
32521;SDS011;18963;51.504;5.316;2024-02-26T00:27:15;5.05;;;2.60;;
32521;SDS011;18963;51.504;5.316;2024-02-26T00:29:40;6.60;;;3.00;;
32521;SDS011;18963;51.504;5.316;2024-02-26T00:32:06;5.43;;;2.63;;
32521;SDS011;18963;51.504;5.316;2024-02-26T00:34:31;7.68;;;2.80;;
32521;SDS011;18963;51.504;5.316;2024-02-26T00:36:57;8.75;;;2.85;;
32521;SDS011;18963;51.504;5.316;2024-02-26T00:39:23;6.18;;;3.13;;
32521;SDS011;18963;51.504;5.316;2024-02-26T00:41:49;7.03;;;2.97;;
32521;SDS011;18963;51.504;5.316;2024-02-26T00:44:16;6.20;;;2.92;;
32521;SDS011;18963;51.504;5.316;2024-02-26T00:46:42;5.50;;;2.88;;
32521;SDS011;18963;51.504;5.316;2024-02-26T00:49:07;5.80;;;2.75;;
32521;SDS011;18963;51.504;5.316;2024-02-26T00:51:33;5.78;;;2.63;;
32521;SDS011;18963;51.504;5.316;2024-02-26T00:53:59;5.63;;;2.63;;
32521;SDS011;18963;51.504;5.316;2024-02-26T00:56:24;6.78;;;2.72;;
32521;SDS011;18963;51.504;5.316;2024-02-26T00:58:50;6.97;;;2.47;;
32521;SDS011;18963;51.504;5.316;2024-02-26T01:01:16;5.57;;;2.90;;
32521;SDS011;18963;51.504;5.316;2024-02-26T01:03:42;6.43;;;3.22;;
32521;SDS011;18963;51.504;5.316;2024-02-26T01:06:07;6.85;;;2.80;;
32521;SDS011;18963;51.504;5.316;2024-02-26T01:08:33;7.45;;;3.35;;
32521;SDS011;18963;51.504;5.316;2024-02-26T01:11:00;6.95;;;2.85;;
32521;SDS011;18963;51.504;5.316;2024-02-26T01:13:26;7.28;;;3.00;;
32521;SDS011;18963;51.504;5.316;2024-02-26T01:15:51;5.65;;;2.67;;
32521;SDS011;18963;51.504;5.316;2024-02-26T01:20:43;5.00;;;2.70;;
32521;SDS011;18963;51.504;5.316;2024-02-26T01:23:08;6.60;;;3.05;;
32521;SDS011;18963;51.504;5.316;2024-02-26T01:25:34;5.55;;;2.85;;
32521;SDS011;18963;51.504;5.316;2024-02-26T01:27:59;6.25;;;2.92;;
32521;SDS011;18963;51.504;5.316;2024-02-26T01:30:25;7.72;;;2.85;;
32521;SDS011;18963;51.504;5.316;2024-02-26T01:32:51;6.00;;;2.83;;
32521;SDS011;18963;51.504;5.316;2024-02-26T01:35:16;6.05;;;2.88;;
32521;SDS011;18963;51.504;5.316;2024-02-26T01:37:42;6.97;;;3.10;;
32521;SDS011;18963;51.504;5.316;2024-02-26T01:40:08;6.82;;;3.50;;
32521;SDS011;18963;51.504;5.316;2024-02-26T01:42:34;7.05;;;2.72;;
32521;SDS011;18963;51.504;5.316;2024-02-26T01:45:02;7.00;;;2.95;;
32521;SDS011;18963;51.504;5.316;2024-02-26T01:47:29;6.28;;;3.10;;
32521;SDS011;18963;51.504;5.316;2024-02-26T01:49:54;7.70;;;3.53;;
32521;SDS011;18963;51.504;5.316;2024-02-26T01:52:22;6.85;;;3.20;;
32521;SDS011;18963;51.504;5.316;2024-02-26T01:54:47;6.70;;;3.20;;
32521;SDS011;18963;51.504;5.316;2024-02-26T01:57:13;6.88;;;2.88;;
32521;SDS011;18963;51.504;5.316;2024-02-26T01:59:39;5.65;;;2.58;;
32521;SDS011;18963;51.504;5.316;2024-02-26T02:02:06;6.38;;;3.00;;
32521;SDS011;18963;51.504;5.316;2024-02-26T02:04:34;6.22;;;3.05;;
32521;SDS011;18963;51.504;5.316;2024-02-26T02:07:01;4.75;;;2.80;;
32521;SDS011;18963;51.504;5.316;2024-02-26T02:09:27;6.00;;;3.03;;
32521;SDS011;18963;51.504;5.316;2024-02-26T02:11:53;6.32;;;3.15;;
32521;SDS011;18963;51.504;5.316;2024-02-26T02:14:19;6.20;;;3.22;;
32521;SDS011;18963;51.504;5.316;2024-02-26T02:16:45;6.68;;;3.13;;
32521;SDS011;18963;51.504;5.316;2024-02-26T02:19:11;6.85;;;3.15;;
32521;SDS011;18963;51.504;5.316;2024-02-26T02:21:37;8.07;;;3.40;;
32521;SDS011;18963;51.504;5.316;2024-02-26T02:24:03;8.07;;;2.95;;
32521;SDS011;18963;51.504;5.316;2024-02-26T02:26:28;6.70;;;3.10;;
32521;SDS011;18963;51.504;5.316;2024-02-26T02:28:54;4.97;;;2.35;;
32521;SDS011;18963;51.504;5.316;2024-02-26T02:31:20;5.63;;;2.83;;
32521;SDS011;18963;51.504;5.316;2024-02-26T02:33:45;6.57;;;3.13;;
32521;SDS011;18963;51.504;5.316;2024-02-26T02:38:37;6.57;;;3.20;;
32521;SDS011;18963;51.504;5.316;2024-02-26T02:41:03;7.65;;;3.13;;
32521;SDS011;18963;51.504;5.316;2024-02-26T02:45:54;7.05;;;3.45;;
32521;SDS011;18963;51.504;5.316;2024-02-26T02:48:19;6.28;;;3.38;;
32521;SDS011;18963;51.504;5.316;2024-02-26T02:50:45;7.15;;;3.65;;
32521;SDS011;18963;51.504;5.316;2024-02-26T02:53:11;7.63;;;3.83;;
32521;SDS011;18963;51.504;5.316;2024-02-26T02:55:36;8.35;;;3.90;;
32521;SDS011;18963;51.504;5.316;2024-02-26T02:58:02;7.28;;;3.95;;
32521;SDS011;18963;51.504;5.316;2024-02-26T03:00:28;7.47;;;3.40;;
32521;SDS011;18963;51.504;5.316;2024-02-26T03:02:53;9.10;;;3.90;;
32521;SDS011;18963;51.504;5.316;2024-02-26T03:05:19;7.18;;;3.53;;
32521;SDS011;18963;51.504;5.316;2024-02-26T03:07:44;5.88;;;3.22;;
32521;SDS011;18963;51.504;5.316;2024-02-26T03:10:10;6.63;;;3.40;;
32521;SDS011;18963;51.504;5.316;2024-02-26T03:12:35;6.70;;;3.75;;
32521;SDS011;18963;51.504;5.316;2024-02-26T03:17:30;6.45;;;3.25;;
32521;SDS011;18963;51.504;5.316;2024-02-26T03:22:21;10.02;;;3.97;;
32521;SDS011;18963;51.504;5.316;2024-02-26T03:24:47;7.63;;;4.18;;
32521;SDS011;18963;51.504;5.316;2024-02-26T03:27:13;9.85;;;4.05;;
32521;SDS011;18963;51.504;5.316;2024-02-26T03:29:39;7.75;;;4.25;;
32521;SDS011;18963;51.504;5.316;2024-02-26T03:32:05;8.20;;;3.60;;
32521;SDS011;18963;51.504;5.316;2024-02-26T03:34:31;11.18;;;4.15;;
32521;SDS011;18963;51.504;5.316;2024-02-26T03:36:59;6.88;;;3.50;;
32521;SDS011;18963;51.504;5.316;2024-02-26T03:39:25;7.22;;;4.03;;
32521;SDS011;18963;51.504;5.316;2024-02-26T03:41:51;9.73;;;3.70;;
32521;SDS011;18963;51.504;5.316;2024-02-26T03:44:17;7.43;;;3.60;;
32521;SDS011;18963;51.504;5.316;2024-02-26T03:46:42;8.65;;;4.05;;
32521;SDS011;18963;51.504;5.316;2024-02-26T03:51:34;7.38;;;3.58;;
32521;SDS011;18963;51.504;5.316;2024-02-26T03:53:59;6.35;;;3.40;;
32521;SDS011;18963;51.504;5.316;2024-02-26T03:56:26;7.85;;;4.03;;
32521;SDS011;18963;51.504;5.316;2024-02-26T03:58:52;6.28;;;3.60;;
32521;SDS011;18963;51.504;5.316;2024-02-26T04:03:43;7.75;;;3.70;;
32521;SDS011;18963;51.504;5.316;2024-02-26T04:08:44;8.70;;;3.47;;
32521;SDS011;18963;51.504;5.316;2024-02-26T04:13:35;7.00;;;3.33;;
32521;SDS011;18963;51.504;5.316;2024-02-26T04:16:05;7.22;;;3.47;;
32521;SDS011;18963;51.504;5.316;2024-02-26T04:18:31;7.65;;;3.40;;
32521;SDS011;18963;51.504;5.316;2024-02-26T04:20:57;6.20;;;3.08;;
32521;SDS011;18963;51.504;5.316;2024-02-26T04:25:48;7.78;;;3.03;;
32521;SDS011;18963;51.504;5.316;2024-02-26T04:28:14;9.77;;;3.40;;
32521;SDS011;18963;51.504;5.316;2024-02-26T04:30:40;6.18;;;2.85;;
32521;SDS011;18963;51.504;5.316;2024-02-26T04:33:06;8.25;;;3.50;;
32521;SDS011;18963;51.504;5.316;2024-02-26T04:35:32;7.78;;;3.47;;
32521;SDS011;18963;51.504;5.316;2024-02-26T04:37:57;7.82;;;3.70;;
32521;SDS011;18963;51.504;5.316;2024-02-26T04:40:23;8.43;;;3.42;;
32521;SDS011;18963;51.504;5.316;2024-02-26T04:42:49;8.40;;;3.67;;
32521;SDS011;18963;51.504;5.316;2024-02-26T04:45:15;8.80;;;3.65;;
32521;SDS011;18963;51.504;5.316;2024-02-26T04:47:40;9.88;;;3.58;;
32521;SDS011;18963;51.504;5.316;2024-02-26T04:50:06;8.00;;;4.03;;
32521;SDS011;18963;51.504;5.316;2024-02-26T04:52:32;6.60;;;3.80;;
32521;SDS011;18963;51.504;5.316;2024-02-26T04:57:24;8.00;;;3.70;;
32521;SDS011;18963;51.504;5.316;2024-02-26T04:59:51;7.85;;;3.75;;
32521;SDS011;18963;51.504;5.316;2024-02-26T05:02:17;8.07;;;3.97;;
32521;SDS011;18963;51.504;5.316;2024-02-26T05:04:42;8.65;;;4.18;;
32521;SDS011;18963;51.504;5.316;2024-02-26T05:07:08;8.23;;;4.10;;
32521;SDS011;18963;51.504;5.316;2024-02-26T05:09:34;8.05;;;4.70;;
32521;SDS011;18963;51.504;5.316;2024-02-26T05:12:00;7.10;;;4.05;;
32521;SDS011;18963;51.504;5.316;2024-02-26T05:16:51;8.50;;;4.00;;
32521;SDS011;18963;51.504;5.316;2024-02-26T05:19:17;7.07;;;4.15;;
32521;SDS011;18963;51.504;5.316;2024-02-26T05:21:42;8.38;;;3.67;;
32521;SDS011;18963;51.504;5.316;2024-02-26T05:24:09;7.07;;;3.92;;
32521;SDS011;18963;51.504;5.316;2024-02-26T05:26:35;6.72;;;3.40;;
32521;SDS011;18963;51.504;5.316;2024-02-26T05:31:26;6.70;;;3.22;;
32521;SDS011;18963;51.504;5.316;2024-02-26T05:33:53;5.85;;;3.03;;
32521;SDS011;18963;51.504;5.316;2024-02-26T05:38:49;5.32;;;3.00;;
32521;SDS011;18963;51.504;5.316;2024-02-26T05:43:41;6.75;;;3.38;;
32521;SDS011;18963;51.504;5.316;2024-02-26T05:46:07;6.43;;;3.42;;
32521;SDS011;18963;51.504;5.316;2024-02-26T05:50:58;6.90;;;3.30;;
32521;SDS011;18963;51.504;5.316;2024-02-26T05:53:23;7.63;;;3.60;;
32521;SDS011;18963;51.504;5.316;2024-02-26T05:55:49;6.70;;;3.63;;
32521;SDS011;18963;51.504;5.316;2024-02-26T05:58:14;6.35;;;3.50;;
32521;SDS011;18963;51.504;5.316;2024-02-26T06:00:40;6.85;;;3.47;;
32521;SDS011;18963;51.504;5.316;2024-02-26T06:03:06;6.90;;;3.35;;
32521;SDS011;18963;51.504;5.316;2024-02-26T06:05:31;6.78;;;3.55;;
32521;SDS011;18963;51.504;5.316;2024-02-26T06:07:57;6.22;;;3.40;;
32521;SDS011;18963;51.504;5.316;2024-02-26T06:10:22;9.07;;;3.72;;
32521;SDS011;18963;51.504;5.316;2024-02-26T06:12:48;6.97;;;3.78;;
32521;SDS011;18963;51.504;5.316;2024-02-26T06:15:14;7.40;;;3.53;;
32521;SDS011;18963;51.504;5.316;2024-02-26T06:17:39;6.53;;;3.45;;
32521;SDS011;18963;51.504;5.316;2024-02-26T06:20:05;6.25;;;3.22;;
32521;SDS011;18963;51.504;5.316;2024-02-26T06:22:32;7.50;;;3.45;;
32521;SDS011;18963;51.504;5.316;2024-02-26T06:27:23;6.53;;;3.67;;
32521;SDS011;18963;51.504;5.316;2024-02-26T06:29:49;7.07;;;3.50;;
32521;SDS011;18963;51.504;5.316;2024-02-26T06:34:40;6.82;;;4.07;;
32521;SDS011;18963;51.504;5.316;2024-02-26T06:37:07;9.82;;;4.20;;
32521;SDS011;18963;51.504;5.316;2024-02-26T06:39:33;7.15;;;3.83;;
32521;SDS011;18963;51.504;5.316;2024-02-26T06:44:27;10.15;;;4.43;;
32521;SDS011;18963;51.504;5.316;2024-02-26T06:46:59;9.07;;;4.85;;
32521;SDS011;18963;51.504;5.316;2024-02-26T06:49:25;7.85;;;4.30;;
32521;SDS011;18963;51.504;5.316;2024-02-26T06:51:51;8.77;;;4.70;;
32521;SDS011;18963;51.504;5.316;2024-02-26T06:57:00;7.47;;;4.55;;
32521;SDS011;18963;51.504;5.316;2024-02-26T06:59:26;9.18;;;4.70;;
32521;SDS011;18963;51.504;5.316;2024-02-26T07:04:18;12.80;;;5.72;;
32521;SDS011;18963;51.504;5.316;2024-02-26T07:09:11;10.80;;;5.90;;
32521;SDS011;18963;51.504;5.316;2024-02-26T07:14:03;10.45;;;5.47;;
32521;SDS011;18963;51.504;5.316;2024-02-26T07:18:54;9.63;;;5.55;;
32521;SDS011;18963;51.504;5.316;2024-02-26T07:21:19;9.50;;;5.70;;
32521;SDS011;18963;51.504;5.316;2024-02-26T07:23:45;11.25;;;5.60;;
32521;SDS011;18963;51.504;5.316;2024-02-26T07:26:10;10.73;;;5.68;;
32521;SDS011;18963;51.504;5.316;2024-02-26T07:28:37;9.98;;;5.60;;
32521;SDS011;18963;51.504;5.316;2024-02-26T07:33:28;8.48;;;4.90;;
32521;SDS011;18963;51.504;5.316;2024-02-26T07:35:54;10.25;;;5.55;;
32521;SDS011;18963;51.504;5.316;2024-02-26T07:40:45;9.15;;;5.22;;
32521;SDS011;18963;51.504;5.316;2024-02-26T07:45:36;9.07;;;4.93;;
32521;SDS011;18963;51.504;5.316;2024-02-26T07:48:01;9.32;;;5.15;;
32521;SDS011;18963;51.504;5.316;2024-02-26T07:50:27;10.20;;;4.85;;
32521;SDS011;18963;51.504;5.316;2024-02-26T07:55:19;11.38;;;5.43;;
32521;SDS011;18963;51.504;5.316;2024-02-26T07:57:44;9.82;;;4.72;;
32521;SDS011;18963;51.504;5.316;2024-02-26T08:00:10;9.68;;;5.00;;
32521;SDS011;18963;51.504;5.316;2024-02-26T08:02:36;8.93;;;4.45;;
32521;SDS011;18963;51.504;5.316;2024-02-26T08:07:27;11.05;;;4.93;;
32521;SDS011;18963;51.504;5.316;2024-02-26T08:12:19;13.85;;;5.07;;
32521;SDS011;18963;51.504;5.316;2024-02-26T08:17:10;10.32;;;4.57;;
32521;SDS011;18963;51.504;5.316;2024-02-26T08:22:01;8.35;;;4.65;;
32521;SDS011;18963;51.504;5.316;2024-02-26T08:24:27;9.25;;;4.68;;
32521;SDS011;18963;51.504;5.316;2024-02-26T08:35:56;8.93;;;4.72;;
32521;SDS011;18963;51.504;5.316;2024-02-26T08:38:48;10.50;;;5.53;;
32521;SDS011;18963;51.504;5.316;2024-02-26T08:41:17;8.52;;;4.45;;
32521;SDS011;18963;51.504;5.316;2024-02-26T08:43:49;9.43;;;5.45;;
32521;SDS011;18963;51.504;5.316;2024-02-26T08:46:17;9.65;;;4.80;;
32521;SDS011;18963;51.504;5.316;2024-02-26T08:48:49;9.48;;;4.95;;
32521;SDS011;18963;51.504;5.316;2024-02-26T08:51:16;9.98;;;5.35;;
32521;SDS011;18963;51.504;5.316;2024-02-26T08:53:44;9.60;;;5.35;;
32521;SDS011;18963;51.504;5.316;2024-02-26T08:56:16;10.23;;;5.03;;
32521;SDS011;18963;51.504;5.316;2024-02-26T08:58:48;8.60;;;4.97;;
32521;SDS011;18963;51.504;5.316;2024-02-26T09:01:26;9.23;;;5.18;;
32521;SDS011;18963;51.504;5.316;2024-02-26T09:04:17;13.32;;;5.68;;
32521;SDS011;18963;51.504;5.316;2024-02-26T09:06:55;9.95;;;5.70;;
32521;SDS011;18963;51.504;5.316;2024-02-26T09:09:41;8.48;;;4.85;;
32521;SDS011;18963;51.504;5.316;2024-02-26T09:12:13;10.10;;;4.78;;
32521;SDS011;18963;51.504;5.316;2024-02-26T09:28:46;12.18;;;5.63;;
32521;SDS011;18963;51.504;5.316;2024-02-26T09:31:18;10.95;;;5.35;;
32521;SDS011;18963;51.504;5.316;2024-02-26T09:37:10;9.23;;;5.60;;
32521;SDS011;18963;51.504;5.316;2024-02-26T09:39:44;11.70;;;6.25;;
32521;SDS011;18963;51.504;5.316;2024-02-26T09:42:19;11.13;;;6.05;;
32521;SDS011;18963;51.504;5.316;2024-02-26T09:48:12;12.50;;;7.28;;
32521;SDS011;18963;51.504;5.316;2024-02-26T09:51:02;12.57;;;5.82;;
32521;SDS011;18963;51.504;5.316;2024-02-26T09:53:54;11.05;;;6.45;;
32521;SDS011;18963;51.504;5.316;2024-02-26T09:59:53;13.35;;;7.93;;
32521;SDS011;18963;51.504;5.316;2024-02-26T10:02:54;12.48;;;6.50;;
32521;SDS011;18963;51.504;5.316;2024-02-26T10:05:30;14.52;;;8.00;;
32521;SDS011;18963;51.504;5.316;2024-02-26T10:08:04;13.25;;;7.82;;
32521;SDS011;18963;51.504;5.316;2024-02-26T10:10:33;13.85;;;7.40;;
32521;SDS011;18963;51.504;5.316;2024-02-26T10:16:29;14.05;;;7.78;;
32521;SDS011;18963;51.504;5.316;2024-02-26T10:19:35;12.73;;;7.53;;
32521;SDS011;18963;51.504;5.316;2024-02-26T10:22:45;13.70;;;7.32;;
32521;SDS011;18963;51.504;5.316;2024-02-26T10:25:11;12.57;;;7.40;;
32521;SDS011;18963;51.504;5.316;2024-02-26T10:27:59;14.82;;;8.10;;
32521;SDS011;18963;51.504;5.316;2024-02-26T10:31:19;16.17;;;8.25;;
32521;SDS011;18963;51.504;5.316;2024-02-26T10:33:48;15.45;;;8.10;;
32521;SDS011;18963;51.504;5.316;2024-02-26T10:36:18;14.63;;;8.38;;
32521;SDS011;18963;51.504;5.316;2024-02-26T10:38:46;17.23;;;8.88;;
32521;SDS011;18963;51.504;5.316;2024-02-26T10:44:41;18.85;;;9.32;;
32521;SDS011;18963;51.504;5.316;2024-02-26T10:47:27;17.60;;;10.40;;
32521;SDS011;18963;51.504;5.316;2024-02-26T10:50:16;15.98;;;8.93;;
32521;SDS011;18963;51.504;5.316;2024-02-26T11:01:54;16.58;;;8.93;;
32521;SDS011;18963;51.504;5.316;2024-02-26T11:04:40;16.75;;;9.82;;
32521;SDS011;18963;51.504;5.316;2024-02-26T11:07:18;15.35;;;8.75;;
32521;SDS011;18963;51.504;5.316;2024-02-26T11:09:49;16.95;;;9.13;;
32521;SDS011;18963;51.504;5.316;2024-02-26T11:15:20;17.77;;;9.55;;
32521;SDS011;18963;51.504;5.316;2024-02-26T11:17:51;16.90;;;9.15;;
32521;SDS011;18963;51.504;5.316;2024-02-26T11:20:35;16.92;;;9.50;;
32521;SDS011;18963;51.504;5.316;2024-02-26T11:23:06;17.08;;;8.38;;
32521;SDS011;18963;51.504;5.316;2024-02-26T11:26:27;19.33;;;9.85;;
32521;SDS011;18963;51.504;5.316;2024-02-26T11:28:56;19.92;;;8.65;;
32521;SDS011;18963;51.504;5.316;2024-02-26T11:31:32;18.85;;;9.93;;
32521;SDS011;18963;51.504;5.316;2024-02-26T11:34:09;18.95;;;10.02;;
32521;SDS011;18963;51.504;5.316;2024-02-26T11:36:42;20.40;;;9.70;;
32521;SDS011;18963;51.504;5.316;2024-02-26T11:39:15;16.85;;;9.60;;
32521;SDS011;18963;51.504;5.316;2024-02-26T11:45:02;16.77;;;9.55;;
32521;SDS011;18963;51.504;5.316;2024-02-26T11:47:50;22.45;;;9.43;;
32521;SDS011;18963;51.504;5.316;2024-02-26T11:53:26;19.00;;;9.18;;
32521;SDS011;18963;51.504;5.316;2024-02-26T11:59:13;20.33;;;9.50;;
32521;SDS011;18963;51.504;5.316;2024-02-26T12:05:11;18.52;;;9.75;;
32521;SDS011;18963;51.504;5.316;2024-02-26T12:10:36;20.92;;;9.60;;
32521;SDS011;18963;51.504;5.316;2024-02-26T12:16:37;27.88;;;12.23;;
32521;SDS011;18963;51.504;5.316;2024-02-26T12:19:04;20.45;;;10.73;;
32521;SDS011;18963;51.504;5.316;2024-02-26T12:21:37;27.52;;;11.57;;
32521;SDS011;18963;51.504;5.316;2024-02-26T12:24:09;19.52;;;10.15;;
32521;SDS011;18963;51.504;5.316;2024-02-26T12:26:48;22.48;;;9.80;;
32521;SDS011;18963;51.504;5.316;2024-02-26T12:29:18;19.15;;;9.52;;
32521;SDS011;18963;51.504;5.316;2024-02-26T12:31:47;20.50;;;10.32;;
32521;SDS011;18963;51.504;5.316;2024-02-26T12:34:29;20.73;;;10.82;;
32521;SDS011;18963;51.504;5.316;2024-02-26T12:37:58;20.52;;;9.35;;
32521;SDS011;18963;51.504;5.316;2024-02-26T12:40:40;21.83;;;10.20;;
32521;SDS011;18963;51.504;5.316;2024-02-26T12:43:17;19.45;;;10.38;;
32521;SDS011;18963;51.504;5.316;2024-02-26T12:45:45;19.33;;;9.18;;
32521;SDS011;18963;51.504;5.316;2024-02-26T12:48:18;21.10;;;10.65;;
32521;SDS011;18963;51.504;5.316;2024-02-26T12:50:45;23.02;;;11.25;;
32521;SDS011;18963;51.504;5.316;2024-02-26T12:53:17;20.45;;;10.35;;
32521;SDS011;18963;51.504;5.316;2024-02-26T12:55:45;26.85;;;11.70;;
32521;SDS011;18963;51.504;5.316;2024-02-26T12:58:15;19.48;;;10.13;;
32521;SDS011;18963;51.504;5.316;2024-02-26T13:04:08;22.15;;;12.25;;
32521;SDS011;18963;51.504;5.316;2024-02-26T13:09:49;17.55;;;9.90;;
32521;SDS011;18963;51.504;5.316;2024-02-26T13:12:21;23.95;;;10.68;;
32521;SDS011;18963;51.504;5.316;2024-02-26T13:21:07;22.38;;;10.13;;
32521;SDS011;18963;51.504;5.316;2024-02-26T13:23:37;17.05;;;9.07;;
32521;SDS011;18963;51.504;5.316;2024-02-26T13:26:33;18.88;;;9.18;;
32521;SDS011;18963;51.504;5.316;2024-02-26T13:29:02;16.65;;;8.70;;
32521;SDS011;18963;51.504;5.316;2024-02-26T13:31:31;18.08;;;9.18;;
32521;SDS011;18963;51.504;5.316;2024-02-26T13:34:11;16.00;;;8.45;;
32521;SDS011;18963;51.504;5.316;2024-02-26T13:37:19;17.45;;;9.23;;
32521;SDS011;18963;51.504;5.316;2024-02-26T13:39:53;18.23;;;9.10;;
32521;SDS011;18963;51.504;5.316;2024-02-26T13:42:20;20.60;;;9.52;;
32521;SDS011;18963;51.504;5.316;2024-02-26T13:44:52;17.75;;;8.73;;
32521;SDS011;18963;51.504;5.316;2024-02-26T13:47:38;16.45;;;7.63;;
32521;SDS011;18963;51.504;5.316;2024-02-26T13:53:32;15.82;;;8.00;;
32521;SDS011;18963;51.504;5.316;2024-02-26T13:59:04;14.30;;;6.97;;
32521;SDS011;18963;51.504;5.316;2024-02-26T14:01:32;16.17;;;7.53;;
32521;SDS011;18963;51.504;5.316;2024-02-26T14:04:05;13.75;;;6.70;;
32521;SDS011;18963;51.504;5.316;2024-02-26T14:06:41;13.23;;;6.53;;
32521;SDS011;18963;51.504;5.316;2024-02-26T14:12:41;14.07;;;6.80;;
32521;SDS011;18963;51.504;5.316;2024-02-26T14:15:45;11.95;;;6.78;;
32521;SDS011;18963;51.504;5.316;2024-02-26T14:18:14;13.55;;;7.20;;
32521;SDS011;18963;51.504;5.316;2024-02-26T14:20:39;13.55;;;6.00;;
32521;SDS011;18963;51.504;5.316;2024-02-26T14:23:15;13.43;;;6.47;;
32521;SDS011;18963;51.504;5.316;2024-02-26T14:25:43;13.05;;;6.70;;
32521;SDS011;18963;51.504;5.316;2024-02-26T14:28:09;10.80;;;5.03;;
32521;SDS011;18963;51.504;5.316;2024-02-26T14:30:41;13.00;;;6.28;;
32521;SDS011;18963;51.504;5.316;2024-02-26T14:39:47;18.25;;;7.05;;
32521;SDS011;18963;51.504;5.316;2024-02-26T14:42:18;13.20;;;6.60;;
32521;SDS011;18963;51.504;5.316;2024-02-26T14:44:47;11.85;;;6.07;;
32521;SDS011;18963;51.504;5.316;2024-02-26T14:47:13;17.52;;;7.60;;
32521;SDS011;18963;51.504;5.316;2024-02-26T14:49:49;14.50;;;6.45;;
32521;SDS011;18963;51.504;5.316;2024-02-26T14:52:16;16.90;;;7.57;;
32521;SDS011;18963;51.504;5.316;2024-02-26T14:57:37;13.23;;;6.78;;
32521;SDS011;18963;51.504;5.316;2024-02-26T15:00:51;14.40;;;7.60;;
32521;SDS011;18963;51.504;5.316;2024-02-26T15:03:59;15.55;;;7.13;;
32521;SDS011;18963;51.504;5.316;2024-02-26T15:06:28;14.02;;;6.63;;
32521;SDS011;18963;51.504;5.316;2024-02-26T15:08:54;13.68;;;6.65;;
32521;SDS011;18963;51.504;5.316;2024-02-26T15:11:21;15.18;;;7.00;;
32521;SDS011;18963;51.504;5.316;2024-02-26T15:13:46;13.73;;;6.95;;
32521;SDS011;18963;51.504;5.316;2024-02-26T15:16:18;13.40;;;6.65;;
32521;SDS011;18963;51.504;5.316;2024-02-26T15:18:45;14.27;;;7.43;;
32521;SDS011;18963;51.504;5.316;2024-02-26T15:23:38;16.70;;;7.57;;
32521;SDS011;18963;51.504;5.316;2024-02-26T15:26:04;14.60;;;7.60;;
32521;SDS011;18963;51.504;5.316;2024-02-26T15:28:30;14.00;;;6.88;;
32521;SDS011;18963;51.504;5.316;2024-02-26T15:30:55;14.40;;;7.15;;
32521;SDS011;18963;51.504;5.316;2024-02-26T15:33:21;14.85;;;7.28;;
32521;SDS011;18963;51.504;5.316;2024-02-26T15:35:49;14.52;;;6.80;;
32521;SDS011;18963;51.504;5.316;2024-02-26T15:38:15;16.70;;;7.15;;
32521;SDS011;18963;51.504;5.316;2024-02-26T15:40:40;14.65;;;7.82;;
32521;SDS011;18963;51.504;5.316;2024-02-26T15:43:06;13.98;;;7.38;;
32521;SDS011;18963;51.504;5.316;2024-02-26T15:45:32;14.93;;;6.82;;
32521;SDS011;18963;51.504;5.316;2024-02-26T15:47:58;12.90;;;6.80;;
32521;SDS011;18963;51.504;5.316;2024-02-26T15:50:25;13.95;;;6.82;;
32521;SDS011;18963;51.504;5.316;2024-02-26T15:52:51;15.52;;;6.95;;
32521;SDS011;18963;51.504;5.316;2024-02-26T15:55:16;13.35;;;7.25;;
32521;SDS011;18963;51.504;5.316;2024-02-26T15:57:42;15.25;;;6.65;;
32521;SDS011;18963;51.504;5.316;2024-02-26T16:00:08;16.42;;;6.88;;
32521;SDS011;18963;51.504;5.316;2024-02-26T16:02:38;13.30;;;6.47;;
32521;SDS011;18963;51.504;5.316;2024-02-26T16:05:05;16.58;;;7.15;;
32521;SDS011;18963;51.504;5.316;2024-02-26T16:07:34;13.02;;;6.38;;
32521;SDS011;18963;51.504;5.316;2024-02-26T16:10:04;15.23;;;7.43;;
32521;SDS011;18963;51.504;5.316;2024-02-26T16:12:39;12.63;;;6.32;;
32521;SDS011;18963;51.504;5.316;2024-02-26T16:15:08;12.60;;;6.03;;
32521;SDS011;18963;51.504;5.316;2024-02-26T16:17:38;16.83;;;7.90;;
32521;SDS011;18963;51.504;5.316;2024-02-26T16:20:17;14.13;;;7.40;;
32521;SDS011;18963;51.504;5.316;2024-02-26T16:23:05;15.60;;;6.95;;
32521;SDS011;18963;51.504;5.316;2024-02-26T16:25:35;14.80;;;7.45;;
32521;SDS011;18963;51.504;5.316;2024-02-26T16:28:01;16.92;;;7.85;;
32521;SDS011;18963;51.504;5.316;2024-02-26T16:30:32;15.32;;;6.30;;
32521;SDS011;18963;51.504;5.316;2024-02-26T16:33:05;13.80;;;7.25;;
32521;SDS011;18963;51.504;5.316;2024-02-26T16:35:37;15.32;;;6.90;;
32521;SDS011;18963;51.504;5.316;2024-02-26T16:38:05;15.65;;;6.80;;
32521;SDS011;18963;51.504;5.316;2024-02-26T16:40:37;13.88;;;6.80;;
32521;SDS011;18963;51.504;5.316;2024-02-26T16:43:11;12.80;;;6.25;;
32521;SDS011;18963;51.504;5.316;2024-02-26T16:46:21;12.90;;;5.97;;
32521;SDS011;18963;51.504;5.316;2024-02-26T16:48:58;12.73;;;6.28;;
32521;SDS011;18963;51.504;5.316;2024-02-26T16:51:30;12.50;;;6.30;;
32521;SDS011;18963;51.504;5.316;2024-02-26T16:53:59;13.02;;;6.70;;
32521;SDS011;18963;51.504;5.316;2024-02-26T16:56:28;11.65;;;6.15;;
32521;SDS011;18963;51.504;5.316;2024-02-26T16:58:59;14.50;;;6.47;;
32521;SDS011;18963;51.504;5.316;2024-02-26T17:01:30;12.40;;;6.07;;
32521;SDS011;18963;51.504;5.316;2024-02-26T17:03:58;11.52;;;6.40;;
32521;SDS011;18963;51.504;5.316;2024-02-26T17:06:29;13.77;;;6.32;;
32521;SDS011;18963;51.504;5.316;2024-02-26T17:08:58;11.45;;;5.85;;
32521;SDS011;18963;51.504;5.316;2024-02-26T17:11:28;11.45;;;5.53;;
32521;SDS011;18963;51.504;5.316;2024-02-26T17:13:58;13.52;;;6.03;;
32521;SDS011;18963;51.504;5.316;2024-02-26T17:16:30;10.63;;;5.25;;
32521;SDS011;18963;51.504;5.316;2024-02-26T17:18:58;12.50;;;6.45;;
32521;SDS011;18963;51.504;5.316;2024-02-26T17:21:25;11.32;;;5.63;;
32521;SDS011;18963;51.504;5.316;2024-02-26T17:23:56;13.02;;;6.10;;
32521;SDS011;18963;51.504;5.316;2024-02-26T17:26:40;12.15;;;5.70;;
32521;SDS011;18963;51.504;5.316;2024-02-26T17:29:08;12.45;;;6.18;;
32521;SDS011;18963;51.504;5.316;2024-02-26T17:31:38;11.95;;;5.53;;
32521;SDS011;18963;51.504;5.316;2024-02-26T17:34:11;12.57;;;6.30;;
32521;SDS011;18963;51.504;5.316;2024-02-26T17:37:00;13.70;;;6.40;;
32521;SDS011;18963;51.504;5.316;2024-02-26T17:39:29;12.55;;;6.40;;
32521;SDS011;18963;51.504;5.316;2024-02-26T17:42:18;11.18;;;5.95;;
32521;SDS011;18963;51.504;5.316;2024-02-26T17:47:13;11.52;;;6.63;;
32521;SDS011;18963;51.504;5.316;2024-02-26T17:49:41;12.88;;;6.35;;
32521;SDS011;18963;51.504;5.316;2024-02-26T17:52:09;12.77;;;5.60;;
32521;SDS011;18963;51.504;5.316;2024-02-26T17:54:43;12.63;;;6.20;;
32521;SDS011;18963;51.504;5.316;2024-02-26T17:57:12;14.75;;;6.20;;
32521;SDS011;18963;51.504;5.316;2024-02-26T17:59:43;12.95;;;5.97;;
32521;SDS011;18963;51.504;5.316;2024-02-26T18:02:15;13.90;;;6.78;;
32521;SDS011;18963;51.504;5.316;2024-02-26T18:04:43;12.35;;;5.78;;